BRU6509 UUEE-UWUU
Flight info
| Callsign | BRU6509 |
|---|---|
| Flight time | N/A |
| Altitude | 39000 |
| Route | KOGOM3J KOGOM L94 UNORO T788 NAMUD L994 DILUP DILUP3Z |
| Aircraft | E195/M-SDE3GILORVW/S |
Departure
| Time | 2026-05-04 15:11 |
|---|---|
| Airport | Sheremetyevo International Airport (UUEE) |
Arrival
| Time | N/A |
|---|---|
| Airport | Ufa International Airport (UWUU) |
| Time | Latitude | Longitude | Altitude | Speed | Heading |
|---|---|---|---|---|---|
| 2026-05-04 14:58 | 55.96380 | 37.40714 | 638 ft | 0 kts | 210° |
| 2026-05-04 15:00 | 55.96382 | 37.40716 | 638 ft | 2 kts | 210° |
| 2026-05-04 15:01 | 55.96410 | 37.40746 | 639 ft | 2 kts | 211° |
| 2026-05-04 15:01 | 55.96425 | 37.40761 | 641 ft | 2 kts | 210° |
| 2026-05-04 15:01 | 55.96439 | 37.40776 | 640 ft | 2 kts | 210° |
| 2026-05-04 15:01 | 55.96454 | 37.40790 | 641 ft | 2 kts | 210° |
| 2026-05-04 15:02 | 55.96468 | 37.40805 | 639 ft | 2 kts | 174° |
| 2026-05-04 15:02 | 55.96484 | 37.40798 | 640 ft | 2 kts | 159° |
| 2026-05-04 15:02 | 55.96499 | 37.40786 | 638 ft | 2 kts | 155° |
| 2026-05-04 15:02 | 55.96512 | 37.40776 | 640 ft | 1 kts | 160° |
| 2026-05-04 15:03 | 55.96513 | 37.40776 | 640 ft | 0 kts | 162° |
| 2026-05-04 15:03 | 55.96507 | 37.40780 | 638 ft | 2 kts | 156° |
| 2026-05-04 15:03 | 55.96493 | 37.40812 | 638 ft | 6 kts | 121° |
| 2026-05-04 15:04 | 55.96497 | 37.40915 | 644 ft | 12 kts | 75° |
| 2026-05-04 15:04 | 55.96531 | 37.41098 | 644 ft | 18 kts | 59° |
| 2026-05-04 15:04 | 55.96657 | 37.41109 | 638 ft | 22 kts | 345° |
| 2026-05-04 15:04 | 55.96783 | 37.41048 | 638 ft | 0 kts | 345° |
| 2026-05-04 15:07 | 55.96807 | 37.41037 | 638 ft | 8 kts | 344° |
| 2026-05-04 15:07 | 55.96860 | 37.41057 | 644 ft | 9 kts | 47° |
| 2026-05-04 15:08 | 55.96885 | 37.41195 | 643 ft | 16 kts | 74° |
| 2026-05-04 15:08 | 55.96922 | 37.41438 | 638 ft | 25 kts | 75° |
| 2026-05-04 15:08 | 55.96973 | 37.41777 | 641 ft | 33 kts | 75° |
| 2026-05-04 15:08 | 55.97038 | 37.42213 | 640 ft | 40 kts | 75° |
| 2026-05-04 15:09 | 55.97115 | 37.42728 | 643 ft | 44 kts | 75° |
| 2026-05-04 15:09 | 55.97171 | 37.43027 | 639 ft | 16 kts | 45° |
| 2026-05-04 15:09 | 55.97245 | 37.43026 | 640 ft | 0 kts | 345° |
| 2026-05-04 15:10 | 55.97251 | 37.43023 | 641 ft | 3 kts | 345° |
| 2026-05-04 15:10 | 55.97293 | 37.43004 | 639 ft | 9 kts | 345° |
| 2026-05-04 15:10 | 55.97524 | 37.42894 | 638 ft | 26 kts | 346° |
| 2026-05-04 15:11 | 55.97573 | 37.42619 | 641 ft | 43 kts | 255° |
| 2026-05-04 15:11 | 55.97413 | 37.41558 | 642 ft | 131 kts | 254° |
| 2026-05-04 15:11 | 55.97127 | 37.39770 | 1135 ft | 170 kts | 252° |
| 2026-05-04 15:11 | 55.96685 | 37.37453 | 1765 ft | 210 kts | 252° |
| 2026-05-04 15:12 | 55.96287 | 37.35087 | 3440 ft | 192 kts | 254° |
| 2026-05-04 15:12 | 55.95923 | 37.32669 | 4145 ft | 213 kts | 256° |
| 2026-05-04 15:12 | 55.95518 | 37.29988 | 4820 ft | 233 kts | 256° |
| 2026-05-04 15:12 | 55.95075 | 37.27093 | 5533 ft | 249 kts | 256° |
| 2026-05-04 15:13 | 55.94611 | 37.24069 | 6440 ft | 254 kts | 256° |
| 2026-05-04 15:13 | 55.94138 | 37.21008 | 7355 ft | 258 kts | 256° |
| 2026-05-04 15:13 | 55.93651 | 37.17859 | 8243 ft | 262 kts | 256° |
| 2026-05-04 15:13 | 55.93164 | 37.14714 | 9086 ft | 265 kts | 256° |
| 2026-05-04 15:14 | 55.92669 | 37.11523 | 9906 ft | 269 kts | 256° |
| 2026-05-04 15:14 | 55.92178 | 37.08365 | 10447 ft | 282 kts | 256° |
| 2026-05-04 15:14 | 55.91754 | 37.04866 | 10936 ft | 294 kts | 269° |
| 2026-05-04 15:14 | 55.92169 | 37.01317 | 11656 ft | 298 kts | 293° |
| 2026-05-04 15:15 | 55.93401 | 36.98307 | 12413 ft | 307 kts | 318° |
| 2026-05-04 15:15 | 55.95334 | 36.96611 | 13175 ft | 319 kts | 344° |
| 2026-05-04 15:15 | 55.97580 | 36.96646 | 13893 ft | 332 kts | 10° |
| 2026-05-04 15:16 | 56.01801 | 37.00440 | 15259 ft | 344 kts | 24° |
| 2026-05-04 15:16 | 56.03881 | 37.02731 | 15932 ft | 353 kts | 39° |
| 2026-05-04 15:16 | 56.05991 | 37.10725 | 17286 ft | 369 kts | 88° |
| 2026-05-04 15:17 | 56.05609 | 37.15261 | 17969 ft | 373 kts | 111° |
| 2026-05-04 15:17 | 56.02991 | 37.23290 | 19271 ft | 377 kts | 125° |
| 2026-05-04 15:17 | 56.01560 | 37.27129 | 19918 ft | 381 kts | 126° |
| 2026-05-04 15:18 | 56.00171 | 37.31321 | 20574 ft | 386 kts | 118° |
| 2026-05-04 15:18 | 55.98912 | 37.35564 | 21178 ft | 389 kts | 120° |
| 2026-05-04 15:18 | 55.97750 | 37.39550 | 21726 ft | 393 kts | 118° |
| 2026-05-04 15:19 | 55.95272 | 37.48336 | 22852 ft | 400 kts | 115° |
| 2026-05-04 15:19 | 55.94242 | 37.53000 | 23413 ft | 404 kts | 111° |
| 2026-05-04 15:19 | 55.92920 | 37.62838 | 24406 ft | 409 kts | 102° |
| 2026-05-04 15:20 | 55.92355 | 37.67820 | 24932 ft | 411 kts | 103° |
| 2026-05-04 15:20 | 55.91514 | 37.72708 | 25434 ft | 414 kts | 110° |
| 2026-05-04 15:20 | 55.90485 | 37.77442 | 25904 ft | 416 kts | 114° |
| 2026-05-04 15:20 | 55.89165 | 37.82050 | 26346 ft | 418 kts | 120° |
| 2026-05-04 15:21 | 55.87806 | 37.86536 | 26774 ft | 420 kts | 119° |
| 2026-05-04 15:21 | 55.86379 | 37.91100 | 27199 ft | 422 kts | 120° |
| 2026-05-04 15:21 | 55.83605 | 37.99952 | 27994 ft | 427 kts | 119° |
| 2026-05-04 15:22 | 55.82165 | 38.04584 | 28402 ft | 429 kts | 117° |
| 2026-05-04 15:22 | 55.81027 | 38.09523 | 28797 ft | 432 kts | 107° |
| 2026-05-04 15:22 | 55.80250 | 38.20098 | 29600 ft | 433 kts | 86° |
| 2026-05-04 15:23 | 55.80633 | 38.25414 | 29847 ft | 437 kts | 76° |
| 2026-05-04 15:23 | 55.81528 | 38.30571 | 30062 ft | 438 kts | 65° |
| 2026-05-04 15:23 | 55.82902 | 38.35390 | 30471 ft | 434 kts | 57° |
| 2026-05-04 15:23 | 55.84476 | 38.39948 | 30884 ft | 432 kts | 55° |
| 2026-05-04 15:24 | 55.87706 | 38.48930 | 31678 ft | 429 kts | 57° |
| 2026-05-04 15:24 | 55.89993 | 38.58736 | 32459 ft | 431 kts | 70° |
| 2026-05-04 15:25 | 55.90804 | 38.63884 | 32861 ft | 430 kts | 73° |
| 2026-05-04 15:25 | 55.91485 | 38.69068 | 33238 ft | 429 kts | 75° |
| 2026-05-04 15:25 | 55.92064 | 38.74305 | 33625 ft | 429 kts | 77° |
| 2026-05-04 15:26 | 55.92863 | 38.83345 | 34153 ft | 428 kts | 79° |
| 2026-05-04 15:26 | 55.93256 | 38.88609 | 34391 ft | 429 kts | 80° |
| 2026-05-04 15:26 | 55.93995 | 38.99199 | 34891 ft | 430 kts | 80° |
| 2026-05-04 15:27 | 55.94354 | 39.04498 | 35143 ft | 430 kts | 81° |
| 2026-05-04 15:27 | 55.94713 | 39.15192 | 35622 ft | 433 kts | 85° |
| 2026-05-04 15:28 | 55.94888 | 39.25943 | 36070 ft | 434 kts | 86° |
| 2026-05-04 15:28 | 55.94965 | 39.31351 | 36289 ft | 434 kts | 86° |
| 2026-05-04 15:28 | 55.95090 | 39.40298 | 36640 ft | 435 kts | 86° |
| 2026-05-04 15:29 | 55.95188 | 39.47528 | 36917 ft | 435 kts | 86° |
| 2026-05-04 15:30 | 55.95455 | 39.69130 | 37710 ft | 437 kts | 87° |
| 2026-05-04 15:30 | 55.95536 | 39.76381 | 37957 ft | 437 kts | 87° |
| 2026-05-04 15:31 | 55.95613 | 39.83688 | 38191 ft | 438 kts | 87° |
| 2026-05-04 15:32 | 55.95772 | 40.00060 | 38637 ft | 439 kts | 88° |
| 2026-05-04 15:32 | 55.95864 | 40.10809 | 38813 ft | 432 kts | 88° |
| 2026-05-04 15:34 | 55.96056 | 40.38106 | 38864 ft | 444 kts | 88° |
| 2026-05-04 15:34 | 55.96142 | 40.54596 | 38875 ft | 443 kts | 88° |
| 2026-05-04 15:35 | 55.96207 | 40.71093 | 38869 ft | 443 kts | 88° |
| 2026-05-04 15:36 | 55.96250 | 40.87572 | 38860 ft | 443 kts | 88° |
| 2026-05-04 15:36 | 55.96267 | 40.98569 | 38862 ft | 443 kts | 89° |
| 2026-05-04 15:37 | 55.96272 | 41.09551 | 38863 ft | 443 kts | 89° |
| 2026-05-04 15:37 | 55.96270 | 41.20176 | 38860 ft | 443 kts | 89° |
| 2026-05-04 15:38 | 55.96257 | 41.31193 | 38860 ft | 443 kts | 89° |
| 2026-05-04 15:38 | 55.96234 | 41.42197 | 38859 ft | 444 kts | 89° |
| 2026-05-04 15:39 | 55.96202 | 41.53275 | 38860 ft | 443 kts | 89° |
| 2026-05-04 15:40 | 55.96151 | 41.66089 | 38850 ft | 443 kts | 89° |
| 2026-05-04 15:40 | 55.96110 | 41.74711 | 38852 ft | 444 kts | 89° |
| 2026-05-04 15:41 | 55.96049 | 41.85675 | 38851 ft | 444 kts | 89° |
| 2026-05-04 15:41 | 55.95977 | 41.96756 | 38852 ft | 444 kts | 89° |
| 2026-05-04 15:42 | 55.95897 | 42.07713 | 38851 ft | 444 kts | 90° |
| 2026-05-04 15:42 | 55.95806 | 42.18723 | 38853 ft | 446 kts | 90° |
| 2026-05-04 15:43 | 55.95703 | 42.29986 | 38855 ft | 455 kts | 90° |
| 2026-05-04 15:43 | 55.95588 | 42.41385 | 38854 ft | 464 kts | 90° |
| 2026-05-04 15:44 | 55.95460 | 42.53017 | 38852 ft | 472 kts | 90° |
| 2026-05-04 15:44 | 55.95319 | 42.64827 | 38855 ft | 480 kts | 90° |
| 2026-05-04 15:45 | 55.95165 | 42.76713 | 38853 ft | 487 kts | 90° |
| 2026-05-04 15:45 | 55.94997 | 42.88870 | 38854 ft | 490 kts | 90° |
| 2026-05-04 15:46 | 55.94817 | 43.00902 | 38851 ft | 483 kts | 90° |
| 2026-05-04 15:46 | 55.94627 | 43.12899 | 38853 ft | 485 kts | 91° |
| 2026-05-04 15:47 | 55.94431 | 43.24601 | 38849 ft | 484 kts | 91° |
| 2026-05-04 15:47 | 55.94225 | 43.36189 | 38855 ft | 484 kts | 91° |
| 2026-05-04 15:48 | 55.94001 | 43.48190 | 38851 ft | 484 kts | 91° |
| 2026-05-04 15:48 | 55.93643 | 43.66202 | 38846 ft | 484 kts | 91° |
| 2026-05-04 15:49 | 55.93388 | 43.78214 | 38850 ft | 484 kts | 91° |
| 2026-05-04 15:49 | 55.93122 | 43.90208 | 38849 ft | 485 kts | 91° |
| 2026-05-04 15:50 | 55.92851 | 44.01957 | 38851 ft | 485 kts | 91° |
| 2026-05-04 15:50 | 55.92563 | 44.13953 | 38857 ft | 485 kts | 91° |
| 2026-05-04 15:51 | 55.92262 | 44.25976 | 38861 ft | 485 kts | 92° |
| 2026-05-04 15:51 | 55.91950 | 44.37990 | 38858 ft | 486 kts | 92° |
| 2026-05-04 15:52 | 55.91624 | 44.50053 | 38853 ft | 486 kts | 92° |
| 2026-05-04 15:52 | 55.91288 | 44.62071 | 38864 ft | 486 kts | 92° |
| 2026-05-04 15:53 | 55.90938 | 44.74199 | 38856 ft | 486 kts | 92° |
| 2026-05-04 15:53 | 55.90579 | 44.86180 | 38860 ft | 487 kts | 92° |
| 2026-05-04 15:54 | 55.90206 | 44.98246 | 38857 ft | 487 kts | 92° |
| 2026-05-04 15:54 | 55.89826 | 45.10140 | 38866 ft | 488 kts | 92° |
| 2026-05-04 15:55 | 55.89427 | 45.22321 | 38853 ft | 488 kts | 92° |
| 2026-05-04 15:55 | 55.89019 | 45.34336 | 38869 ft | 489 kts | 92° |
| 2026-05-04 15:56 | 55.88597 | 45.46463 | 38859 ft | 489 kts | 92° |
| 2026-05-04 15:56 | 55.88182 | 45.58058 | 38865 ft | 490 kts | 93° |
| 2026-05-04 15:57 | 55.87737 | 45.70156 | 38864 ft | 490 kts | 93° |
| 2026-05-04 15:57 | 55.87278 | 45.82289 | 38875 ft | 491 kts | 93° |
| 2026-05-04 15:58 | 55.86808 | 45.94444 | 38866 ft | 491 kts | 93° |
| 2026-05-04 15:58 | 55.86325 | 46.06587 | 38867 ft | 491 kts | 93° |
| 2026-05-04 15:59 | 55.85833 | 46.18647 | 38868 ft | 492 kts | 93° |
| 2026-05-04 15:59 | 55.85324 | 46.30855 | 38873 ft | 492 kts | 93° |
| 2026-05-04 16:00 | 55.84808 | 46.42931 | 38878 ft | 492 kts | 94° |
| 2026-05-04 16:00 | 55.84277 | 46.55082 | 38888 ft | 493 kts | 94° |
| 2026-05-04 16:01 | 55.83733 | 46.67236 | 38874 ft | 492 kts | 94° |
| 2026-05-04 16:01 | 55.83177 | 46.79389 | 38878 ft | 493 kts | 94° |
| 2026-05-04 16:02 | 55.82608 | 46.91563 | 38878 ft | 493 kts | 94° |
| 2026-05-04 16:03 | 55.81735 | 47.09762 | 38870 ft | 493 kts | 94° |
| 2026-05-04 16:03 | 55.81238 | 47.19866 | 38895 ft | 493 kts | 94° |
| 2026-05-04 16:04 | 55.80531 | 47.33996 | 38920 ft | 494 kts | 94° |
| 2026-05-04 16:04 | 55.79697 | 47.50229 | 38906 ft | 492 kts | 95° |
| 2026-05-04 16:05 | 55.79386 | 47.56155 | 38899 ft | 472 kts | 94° |
| 2026-05-04 16:05 | 55.79086 | 47.61848 | 38884 ft | 453 kts | 95° |
| 2026-05-04 16:06 | 55.78028 | 47.78263 | 38915 ft | 452 kts | 102° |
| 2026-05-04 16:07 | 55.73845 | 47.99615 | 38916 ft | 452 kts | 112° |
| 2026-05-04 16:08 | 55.69121 | 48.20293 | 38922 ft | 452 kts | 112° |
| 2026-05-04 16:09 | 55.63172 | 48.46052 | 38931 ft | 452 kts | 112° |
| 2026-05-04 16:10 | 55.58372 | 48.66610 | 38931 ft | 451 kts | 112° |
| 2026-05-04 16:11 | 55.53546 | 48.87086 | 38930 ft | 451 kts | 113° |
| 2026-05-04 16:12 | 55.46375 | 49.17160 | 38926 ft | 450 kts | 113° |
| 2026-05-04 16:13 | 55.41477 | 49.37458 | 38932 ft | 449 kts | 113° |
| 2026-05-04 16:14 | 55.36561 | 49.57646 | 38927 ft | 449 kts | 114° |
| 2026-05-04 16:16 | 55.30391 | 49.82724 | 38938 ft | 448 kts | 114° |
| 2026-05-04 16:17 | 55.24181 | 50.07675 | 38950 ft | 448 kts | 114° |
| 2026-05-04 16:18 | 55.19136 | 50.27742 | 38949 ft | 448 kts | 114° |
| 2026-05-04 16:19 | 55.12969 | 50.52024 | 38949 ft | 448 kts | 115° |
| 2026-05-04 16:20 | 55.06599 | 50.76839 | 38942 ft | 448 kts | 115° |
| 2026-05-04 16:22 | 55.03439 | 50.91967 | 38371 ft | 448 kts | 108° |
| 2026-05-04 16:22 | 55.00764 | 51.07607 | 35995 ft | 448 kts | 107° |
| 2026-05-04 16:23 | 54.98091 | 51.23184 | 33717 ft | 446 kts | 106° |
| 2026-05-04 16:26 | 54.89419 | 51.72758 | 25303 ft | 417 kts | 105° |
| 2026-05-04 16:26 | 54.86892 | 51.86959 | 23137 ft | 404 kts | 105° |
| 2026-05-04 16:27 | 54.85242 | 51.96166 | 21633 ft | 394 kts | 105° |
| 2026-05-04 16:28 | 54.82839 | 52.09490 | 19550 ft | 380 kts | 106° |
| 2026-05-04 16:28 | 54.80470 | 52.22541 | 17505 ft | 368 kts | 106° |
| 2026-05-04 16:29 | 54.77471 | 52.38925 | 14870 ft | 352 kts | 106° |
| 2026-05-04 16:30 | 54.75255 | 52.50936 | 12936 ft | 341 kts | 106° |
| 2026-05-04 16:31 | 54.73822 | 52.58668 | 11654 ft | 335 kts | 106° |
| 2026-05-04 16:31 | 54.71825 | 52.69382 | 10800 ft | 300 kts | 106° |
| 2026-05-04 16:32 | 54.70110 | 52.78540 | 9694 ft | 291 kts | 107° |
| 2026-05-04 16:33 | 54.68887 | 52.85043 | 8802 ft | 286 kts | 106° |
| 2026-05-04 16:33 | 54.67679 | 52.91443 | 7933 ft | 282 kts | 106° |
| 2026-05-04 16:34 | 54.66472 | 52.97810 | 7106 ft | 278 kts | 106° |
| 2026-05-04 16:34 | 54.65875 | 53.00964 | 6694 ft | 276 kts | 106° |
| 2026-05-04 16:35 | 54.64082 | 53.10376 | 5424 ft | 273 kts | 107° |
| 2026-05-04 16:35 | 54.62333 | 53.19511 | 4214 ft | 269 kts | 107° |
| 2026-05-04 16:36 | 54.61750 | 53.22552 | 3822 ft | 267 kts | 107° |
| 2026-05-04 16:36 | 54.60591 | 53.28568 | 3132 ft | 260 kts | 107° |
| 2026-05-04 16:37 | 54.59465 | 53.34396 | 3113 ft | 261 kts | 107° |
| 2026-05-04 16:37 | 54.58873 | 53.37456 | 3116 ft | 261 kts | 107° |
| 2026-05-04 16:37 | 54.57736 | 53.43321 | 3125 ft | 262 kts | 107° |
| 2026-05-04 16:38 | 54.56766 | 53.48301 | 3124 ft | 261 kts | 107° |